createdAt,value
2018-04-24T00:02:17.992Z,12.80
2018-04-24T00:04:45.789Z,12.80
2018-04-24T00:07:13.440Z,12.80
2018-04-24T00:09:41.145Z,12.80
2018-04-24T00:12:08.608Z,12.80
2018-04-24T00:14:36.064Z,12.80
2018-04-24T00:17:03.563Z,12.70
2018-04-24T00:19:31.084Z,12.70
2018-04-24T00:21:58.632Z,12.70
2018-04-24T00:24:26.169Z,12.70
2018-04-24T00:26:53.654Z,12.70
2018-04-24T00:29:21.121Z,12.70
2018-04-24T00:31:48.639Z,12.60
2018-04-24T00:34:16.285Z,12.60
2018-04-24T00:36:43.724Z,12.60
2018-04-24T00:39:11.177Z,12.50
2018-04-24T00:41:38.721Z,12.40
2018-04-24T00:44:06.187Z,12.40
2018-04-24T00:46:33.764Z,12.30
2018-04-24T00:49:02.148Z,12.30
2018-04-24T00:51:29.611Z,12.20
2018-04-24T00:53:57.297Z,12.20
2018-04-24T00:56:24.872Z,12.10
2018-04-24T00:58:53.309Z,12.10
2018-04-24T01:01:20.804Z,12.00
2018-04-24T01:03:49.008Z,12.00
2018-04-24T01:06:17.353Z,11.90
2018-04-24T01:08:44.882Z,11.90
2018-04-24T01:11:12.346Z,11.90
2018-04-24T01:13:39.824Z,11.90
2018-04-24T01:16:07.397Z,11.80
2018-04-24T01:18:34.968Z,11.80
2018-04-24T01:21:02.433Z,11.80
2018-04-24T01:23:30.014Z,11.80
2018-04-24T01:25:57.480Z,11.80
2018-04-24T01:28:24.952Z,11.70
2018-04-24T01:30:52.456Z,11.70
2018-04-24T01:33:19.994Z,11.60
2018-04-24T01:35:47.501Z,11.60
2018-04-24T01:38:15.034Z,11.60
2018-04-24T01:40:42.488Z,11.50
2018-04-24T01:43:10.832Z,11.50
2018-04-24T01:45:38.288Z,11.40
2018-04-24T01:48:05.879Z,11.50
2018-04-24T01:50:33.557Z,11.40
2018-04-24T01:53:01.049Z,11.40
2018-04-24T01:55:28.654Z,11.40
2018-04-24T01:57:57.150Z,11.40
2018-04-24T02:00:24.667Z,11.30
2018-04-24T02:02:52.117Z,11.30
2018-04-24T02:05:19.588Z,11.30
2018-04-24T02:07:47.133Z,11.20
2018-04-24T02:10:14.586Z,11.20
2018-04-24T02:12:42.887Z,11.20
2018-04-24T02:15:11.141Z,11.20
2018-04-24T02:17:38.688Z,11.20
2018-04-24T02:20:06.168Z,11.30
2018-04-24T02:22:33.776Z,11.30
2018-04-24T02:25:01.224Z,11.30
2018-04-24T02:27:28.664Z,11.30
2018-04-24T02:29:56.307Z,11.20
2018-04-24T02:32:23.753Z,11.20
2018-04-24T02:34:52.033Z,11.20
2018-04-24T02:37:19.641Z,11.10
2018-04-24T02:39:47.089Z,11.20
2018-04-24T02:42:15.309Z,11.10
2018-04-24T02:44:42.767Z,11.10
2018-04-24T02:47:10.333Z,11.10
2018-04-24T02:49:37.841Z,11.10
2018-04-24T02:52:05.321Z,11.00
2018-04-24T02:54:32.781Z,11.00
2018-04-24T02:57:00.562Z,10.90
2018-04-24T02:59:28.200Z,10.80
2018-04-24T03:01:55.923Z,10.80
2018-04-24T03:04:23.384Z,10.80
2018-04-24T03:06:50.838Z,10.70
2018-04-24T03:09:18.383Z,10.60
2018-04-24T03:11:45.919Z,10.70
2018-04-24T03:14:13.423Z,10.60
2018-04-24T03:16:40.867Z,10.60
2018-04-24T03:19:09.388Z,10.60
2018-04-24T03:21:37.592Z,10.60
2018-04-24T03:24:05.155Z,10.50
2018-04-24T03:26:32.665Z,10.50
2018-04-24T03:29:00.192Z,10.60
2018-04-24T03:31:27.700Z,10.50
2018-04-24T03:33:55.216Z,10.60
2018-04-24T03:36:23.458Z,10.60
2018-04-24T03:38:50.976Z,10.60
2018-04-24T03:41:19.485Z,10.50
2018-04-24T03:43:47.096Z,10.50
2018-04-24T03:46:14.565Z,10.50
2018-04-24T03:48:42.033Z,10.40
2018-04-24T03:51:09.564Z,10.50
2018-04-24T03:53:37.844Z,10.60
2018-04-24T03:56:06.072Z,10.80
2018-04-24T03:58:33.718Z,10.70
2018-04-24T04:01:02.055Z,10.80
2018-04-24T04:04:58.721Z,10.80
2018-04-24T04:07:26.249Z,10.90
2018-04-24T04:09:53.712Z,10.90
2018-04-24T04:12:21.204Z,10.80
2018-04-24T04:14:48.681Z,10.90
2018-04-24T04:17:28.135Z,10.90
2018-04-24T04:20:07.433Z,10.80
2018-04-24T07:20:34.580Z,13.90
2018-04-24T07:27:48.844Z,14.00
2018-04-24T07:30:18.917Z,14.30
2018-04-24T07:32:49.333Z,14.30
2018-04-24T07:35:18.435Z,14.60
2018-04-24T07:37:46.679Z,14.60
2018-04-24T07:40:15.081Z,14.80
2018-04-24T07:42:42.640Z,15.00
2018-04-24T07:45:10.089Z,15.00
2018-04-24T07:47:37.580Z,14.90
2018-04-24T07:50:05.030Z,15.00
2018-04-24T07:52:32.481Z,15.00
2018-04-24T07:54:59.953Z,15.10
2018-04-24T07:57:27.476Z,15.30
2018-04-24T07:59:55.961Z,15.40
2018-04-24T08:02:24.599Z,15.50
2018-04-24T08:04:52.209Z,15.40
2018-04-24T08:07:21.315Z,15.60
2018-04-24T08:09:50.448Z,15.60
2018-04-24T08:12:18.933Z,15.40
2018-04-24T08:14:48.834Z,15.40
2018-04-24T08:17:17.589Z,15.30
2018-04-24T08:19:48.009Z,15.10
2018-04-24T08:22:17.866Z,15.00
2018-04-24T08:24:47.201Z,14.90
2018-04-24T08:27:16.444Z,14.90
2018-04-24T08:29:44.436Z,14.90
2018-04-24T08:32:11.968Z,14.90
2018-04-24T08:34:39.436Z,15.00
2018-04-24T08:37:06.884Z,15.10
2018-04-24T08:39:35.097Z,15.10
2018-04-24T08:42:04.434Z,15.00
2018-04-24T08:44:32.712Z,15.00
2018-04-24T08:47:01.644Z,14.90
2018-04-24T08:49:29.184Z,15.10
2018-04-24T08:51:58.095Z,15.10
2018-04-24T08:54:25.756Z,15.10
2018-04-24T08:56:53.388Z,15.10
2018-04-24T08:59:21.035Z,15.20
2018-04-24T09:01:49.342Z,15.20
2018-04-24T09:04:17.956Z,15.10
2018-04-24T09:06:46.918Z,15.00
2018-04-24T09:09:16.878Z,14.70
2018-04-24T09:11:45.445Z,14.70
2018-04-24T09:14:13.020Z,14.70
2018-04-24T09:16:40.528Z,14.70
2018-04-24T09:19:07.981Z,14.60
2018-04-24T09:21:35.432Z,14.50
2018-04-24T09:24:02.910Z,14.70
2018-04-24T09:26:30.359Z,14.80
2018-04-24T09:28:58.580Z,15.10
2018-04-24T09:31:31.660Z,15.10
2018-04-24T11:03:25.830Z,15.60
2018-04-24T11:05:54.080Z,15.70
2018-04-24T11:08:21.748Z,15.70
2018-04-24T11:17:10.360Z,16.90
2018-04-24T11:19:37.808Z,17.10
2018-04-24T11:22:05.269Z,17.30
2018-04-24T11:24:33.606Z,17.40
2018-04-24T11:27:01.467Z,17.40
2018-04-24T11:29:29.118Z,17.60
2018-04-24T11:31:57.448Z,18.00
2018-04-24T11:34:25.360Z,18.00
2018-04-24T11:36:53.529Z,17.80
2018-04-24T11:39:21.523Z,18.00
2018-04-24T11:41:49.162Z,18.30
2018-04-24T11:44:16.637Z,18.50
2018-04-24T11:46:44.141Z,18.80
2018-04-24T11:49:11.614Z,18.90
2018-04-24T11:51:39.069Z,18.90
2018-04-24T11:54:06.532Z,18.60
2018-04-24T11:56:33.995Z,18.60
2018-04-24T11:59:02.292Z,18.40
2018-04-24T12:01:30.348Z,18.30
2018-04-24T12:03:58.272Z,18.60
2018-04-24T12:06:26.951Z,18.80
2018-04-24T12:08:55.453Z,19.00
2018-04-24T12:11:23.888Z,18.90
2018-04-24T12:13:52.733Z,19.10
2018-04-24T12:16:20.932Z,18.90
2018-04-24T12:18:48.412Z,18.80
2018-04-24T12:21:16.146Z,18.60
2018-04-24T12:23:43.760Z,18.50
2018-04-24T12:26:11.272Z,18.40
2018-04-24T12:28:39.324Z,18.40
2018-04-24T12:31:07.011Z,18.40
2018-04-24T12:33:35.019Z,18.40
2018-04-24T12:36:02.826Z,18.20
2018-04-24T12:38:30.354Z,18.10
2018-04-24T12:40:58.738Z,18.10
2018-04-24T12:43:26.443Z,18.10
2018-04-24T12:45:55.623Z,18.10
2018-04-24T12:48:24.333Z,18.20
2018-04-24T12:50:52.650Z,18.60
2018-04-24T12:53:21.333Z,19.10
2018-04-24T12:55:48.859Z,19.60
2018-04-24T12:58:16.491Z,20.20
2018-04-24T13:00:44.705Z,20.60
2018-04-24T13:03:12.154Z,20.50
2018-04-24T13:05:39.628Z,20.60
2018-04-24T13:08:07.151Z,20.80
2018-04-24T13:10:35.355Z,21.40
2018-04-24T13:13:03.109Z,21.40
2018-04-24T13:15:30.957Z,21.50
2018-04-24T13:17:58.971Z,21.40
2018-04-24T13:20:26.659Z,21.10
2018-04-24T13:22:56.656Z,20.40
2018-04-24T13:25:24.223Z,20.40
2018-04-24T13:27:51.730Z,19.90
2018-04-24T13:30:19.181Z,19.50
2018-04-24T13:32:46.628Z,19.40
2018-04-24T13:35:14.097Z,19.50
2018-04-24T13:37:41.550Z,19.50
2018-04-24T13:40:09.951Z,20.10
2018-04-24T13:42:37.456Z,20.10
2018-04-24T13:45:04.931Z,20.40
2018-04-24T13:47:32.997Z,20.60
2018-04-24T13:50:00.867Z,20.70
2018-04-24T13:52:29.197Z,20.50
2018-04-24T13:54:56.700Z,20.50
2018-04-24T13:57:25.030Z,20.50
2018-04-24T13:59:52.563Z,20.40
2018-04-24T14:02:22.253Z,20.40
2018-04-24T14:04:51.131Z,19.90
2018-04-24T14:07:20.126Z,19.70
2018-04-24T14:09:47.573Z,19.70
2018-04-24T14:12:15.224Z,19.50
2018-04-24T14:14:42.699Z,19.50
2018-04-24T14:17:10.989Z,19.90
2018-04-24T14:19:39.279Z,20.00
2018-04-24T14:22:07.489Z,19.90
2018-04-24T14:24:34.972Z,19.90
2018-04-24T14:27:02.783Z,19.70
2018-04-24T14:29:30.425Z,19.80
2018-04-24T14:31:58.241Z,19.90
2018-04-24T14:34:27.378Z,19.60
2018-04-24T14:36:55.733Z,19.60
2018-04-24T14:39:23.409Z,19.70
2018-04-24T14:41:51.363Z,19.80
2018-04-24T14:44:19.842Z,19.70
2018-04-24T14:46:47.316Z,19.60
2018-04-24T14:49:14.795Z,19.30
2018-04-24T14:51:42.332Z,19.20
2018-04-24T14:54:10.451Z,19.10
2018-04-24T14:56:38.000Z,19.10
2018-04-24T14:59:05.469Z,19.00
2018-04-24T15:01:33.088Z,19.00
2018-04-24T15:04:00.607Z,19.10
2018-04-24T15:06:29.075Z,19.20
2018-04-24T15:08:56.600Z,19.20
2018-04-24T15:11:24.668Z,19.10
2018-04-24T15:13:53.530Z,19.10
2018-04-24T15:16:21.325Z,19.10
2018-04-24T15:18:49.061Z,19.10
2018-04-24T15:21:16.525Z,19.10
2018-04-24T15:23:44.029Z,19.10
2018-04-24T15:26:11.556Z,19.10
2018-04-24T15:28:39.008Z,19.20
2018-04-24T15:31:06.485Z,19.10
2018-04-24T15:33:34.044Z,19.00
2018-04-24T15:36:01.904Z,19.00
2018-04-24T15:38:29.437Z,18.90
2018-04-24T15:40:57.004Z,18.70
2018-04-24T15:43:26.047Z,18.50
2018-04-24T15:45:54.760Z,18.50
2018-04-24T15:48:23.389Z,18.60
2018-04-24T15:50:51.831Z,18.50
2018-04-24T15:53:19.562Z,18.50
2018-04-24T15:55:47.150Z,18.50
2018-04-24T15:58:14.894Z,18.40
2018-04-24T16:00:43.329Z,18.40
2018-04-24T16:03:10.862Z,18.30
2018-04-24T16:05:38.315Z,18.30
2018-04-24T16:08:05.760Z,18.30
2018-04-24T16:10:33.536Z,18.30
2018-04-24T16:13:01.091Z,18.30
2018-04-24T16:15:29.359Z,18.40
2018-04-24T16:17:57.049Z,18.30
2018-04-24T16:20:26.560Z,18.30
2018-04-24T16:22:54.531Z,18.30
2018-04-24T16:25:23.719Z,18.30
2018-04-24T16:27:55.637Z,18.30
2018-04-24T16:30:24.952Z,18.30
2018-04-24T16:32:52.759Z,18.20
2018-04-24T16:35:21.121Z,18.30
2018-04-24T16:37:48.784Z,18.40
2018-04-24T16:40:16.228Z,18.50
2018-04-24T16:42:43.713Z,18.50
2018-04-24T16:45:11.218Z,18.30
2018-04-24T16:47:39.773Z,18.20
2018-04-24T16:50:08.061Z,18.10
2018-04-24T16:52:35.651Z,18.10
2018-04-24T18:08:19.884Z,16.40
2018-04-24T18:14:10.217Z,16.30
2018-04-24T18:16:37.695Z,16.30
2018-04-24T18:19:06.450Z,16.20
2018-04-24T18:21:34.892Z,16.20
2018-04-24T18:24:03.026Z,16.20
2018-04-24T18:26:31.272Z,16.30
2018-04-24T18:28:59.323Z,16.20
2018-04-24T18:31:26.929Z,16.30
2018-04-24T18:33:56.100Z,16.30
2018-04-24T18:36:24.241Z,16.40
2018-04-24T18:38:52.877Z,16.40
2018-04-24T18:41:22.085Z,16.40
2018-04-24T18:43:50.360Z,16.40
2018-04-24T18:46:17.851Z,16.30
2018-04-24T18:48:45.312Z,16.30
2018-04-24T18:51:13.636Z,16.30
2018-04-24T18:53:57.286Z,16.30
2018-04-24T18:56:25.664Z,16.30
2018-04-24T18:58:53.485Z,16.30
2018-04-24T19:01:21.370Z,16.30
2018-04-24T19:03:50.347Z,16.30
2018-04-24T19:06:17.848Z,16.30
2018-04-24T19:08:45.375Z,16.30
2018-04-24T19:11:13.607Z,16.30
2018-04-24T19:13:41.142Z,16.30
2018-04-24T19:16:08.616Z,16.30
2018-04-24T19:18:41.715Z,16.30
2018-04-24T19:21:09.284Z,16.30
2018-04-24T19:23:36.858Z,16.30
2018-04-24T19:26:04.389Z,16.30
2018-04-24T19:28:31.909Z,16.30
2018-04-24T19:34:05.509Z,16.20
2018-04-24T19:36:33.724Z,16.20
2018-04-24T19:39:06.908Z,16.20
2018-04-24T19:41:40.102Z,16.10
2018-04-24T19:44:08.171Z,16.00
2018-04-24T19:46:35.695Z,16.00
2018-04-24T19:49:09.017Z,16.00
2018-04-24T19:51:37.148Z,15.90
2018-04-24T19:54:04.722Z,15.90
2018-04-24T19:56:33.017Z,15.90
2018-04-24T19:59:00.953Z,15.90
2018-04-24T20:01:28.976Z,15.90
2018-04-24T20:03:56.571Z,15.90
2018-04-24T20:06:24.967Z,15.80
2018-04-24T20:08:52.968Z,15.80
2018-04-24T20:11:20.822Z,15.80
2018-04-24T20:13:48.298Z,15.90
2018-04-24T20:16:15.757Z,15.90
2018-04-24T20:18:43.996Z,15.90
2018-04-24T20:21:11.468Z,15.80
2018-04-24T20:23:38.944Z,15.80
2018-04-24T20:26:06.413Z,15.80
2018-04-24T20:28:33.903Z,15.90
2018-04-24T20:31:01.386Z,15.90
2018-04-24T20:33:29.044Z,15.80
2018-04-24T20:35:56.557Z,15.80
2018-04-24T20:38:25.081Z,15.80
2018-04-24T20:40:52.887Z,15.80
2018-04-24T20:43:21.386Z,15.80
2018-04-24T20:45:49.017Z,15.70
2018-04-24T20:48:16.509Z,15.70
2018-04-24T20:50:44.069Z,15.70
2018-04-24T20:53:11.573Z,15.70
2018-04-24T20:55:39.762Z,15.70
2018-04-24T20:58:07.360Z,15.70
2018-04-24T21:00:35.669Z,15.60
2018-04-24T21:03:03.149Z,15.60
2018-04-24T21:05:31.563Z,15.70
2018-04-24T21:07:59.276Z,15.70
2018-04-24T21:10:27.152Z,15.60
2018-04-24T21:12:55.499Z,15.60
2018-04-24T21:15:24.543Z,15.60
2018-04-24T21:17:52.872Z,15.60
2018-04-24T21:20:21.036Z,15.60
2018-04-24T21:22:49.678Z,15.60
2018-04-24T21:25:17.289Z,15.60
2018-04-24T21:27:44.741Z,15.60
2018-04-24T21:30:13.042Z,15.60
2018-04-24T21:32:41.268Z,15.50
2018-04-24T21:35:08.804Z,15.50
2018-04-24T21:37:36.228Z,15.50
2018-04-24T21:40:04.918Z,15.60
2018-04-24T21:42:32.510Z,15.50
2018-04-24T21:45:01.144Z,15.50
2018-04-24T21:47:29.344Z,15.50
2018-04-24T21:49:57.140Z,15.50
2018-04-24T21:52:26.553Z,15.50
2018-04-24T21:54:55.225Z,15.50
2018-04-24T21:57:23.528Z,15.50
2018-04-24T21:59:52.256Z,15.50
2018-04-24T22:02:21.074Z,15.40
2018-04-24T22:04:48.700Z,15.40
2018-04-24T22:07:16.229Z,15.40
2018-04-24T22:09:44.491Z,15.30
2018-04-24T22:12:11.948Z,15.30
2018-04-24T22:14:39.432Z,15.30
2018-04-24T22:17:06.913Z,15.20
2018-04-24T22:19:35.128Z,14.90
2018-04-24T22:22:03.535Z,14.90
2018-04-24T22:24:31.456Z,14.80
2018-04-24T22:27:00.065Z,14.70
2018-04-24T22:29:28.244Z,14.70
2018-04-24T22:31:57.407Z,14.60
2018-04-24T22:34:25.192Z,14.60
2018-04-24T22:36:54.445Z,14.50
2018-04-24T22:39:24.385Z,14.50
2018-04-24T22:41:53.012Z,14.50
2018-04-24T22:44:20.954Z,14.60
2018-04-24T22:46:48.440Z,14.50
2018-04-24T22:49:16.190Z,14.50
2018-04-24T22:51:44.412Z,14.60
2018-04-24T22:54:11.868Z,14.60
2018-04-24T22:56:39.337Z,14.60
2018-04-24T22:59:06.801Z,14.60
2018-04-24T23:01:34.302Z,14.60
2018-04-24T23:04:01.932Z,14.60
2018-04-24T23:06:30.214Z,14.70
2018-04-24T23:09:00.253Z,14.70
2018-04-24T23:11:40.689Z,14.70
2018-04-24T23:14:20.728Z,14.70
2018-04-24T23:17:00.250Z,14.70
2018-04-24T23:19:39.588Z,14.70
2018-04-24T23:22:06.838Z,14.80
2018-04-24T23:24:34.294Z,14.80
2018-04-24T23:27:02.192Z,14.80
2018-04-24T23:29:30.212Z,14.90
2018-04-24T23:31:59.398Z,14.80
2018-04-24T23:34:28.725Z,14.90
2018-04-24T23:36:57.434Z,14.90
2018-04-24T23:39:25.843Z,14.90
2018-04-24T23:41:55.073Z,14.90
2018-04-24T23:44:24.065Z,14.90
2018-04-24T23:46:52.484Z,14.90
2018-04-24T23:49:21.523Z,14.90
2018-04-24T23:51:49.530Z,14.90
2018-04-24T23:54:17.096Z,14.90
2018-04-24T23:56:44.572Z,14.90
2018-04-24T23:59:12.117Z,14.90
